Time;durP1;ratioP1;P1;durP2;ratioP2;P2;SDS_P1;SDS_P2;PMS_P1;PMS_P2;Temp;Humidity;BMP_temperature;BMP_pressure;BME280_temperature;BME280_humidity;BME280_pressure;Samples;Min_cycle;Max_cycle;Signal;HPM_P1;HPM_P2
2021/10/21 00:01:31;;;;;;;10.98;8.35;;;;;;;12.21;84.88;97931.59;2168752;82;21539;-81
2021/10/21 00:04:32;;;;;;;10.58;9.40;;;;;;;12.14;84.94;97928.18;2168868;82;20999;-81
2021/10/21 00:07:33;;;;;;;10.45;8.93;;;;;;;12.09;85.24;97935.37;2168967;82;21528;-81
2021/10/21 00:10:34;;;;;;;11.28;9.38;;;;;;;12.03;85.46;97929.64;2168819;82;21126;-81
2021/10/21 00:13:34;;;;;;;11.85;9.03;;;;;;;11.97;85.94;97921.27;2171211;81;21617;-81
2021/10/21 00:16:35;;;;;;;11.68;8.45;;;;;;;11.86;85.95;97924.04;2189713;80;20984;-81
2021/10/21 00:19:36;;;;;;;11.88;9.10;;;;;;;11.80;86.33;97906.52;2187517;80;21513;-81
2021/10/21 00:22:37;;;;;;;12.73;8.95;;;;;;;11.76;86.78;97904.47;2187415;80;20968;-81
2021/10/21 00:25:38;;;;;;;8.68;7.78;;;;;;;11.69;87.10;97909.22;2187360;81;21003;-81
2021/10/21 00:28:39;;;;;;;12.07;8.60;;;;;;;11.64;87.46;97896.45;2187390;80;21043;-82
2021/10/21 00:31:39;;;;;;;9.68;8.53;;;;;;;11.56;87.60;97894.05;2187406;80;21502;-81
2021/10/21 00:34:40;;;;;;;10.80;9.18;;;;;;;11.49;87.97;97884.07;2187471;80;21055;-81
2021/10/21 00:37:41;;;;;;;11.20;9.45;;;;;;;11.42;87.95;97884.58;2186606;81;21015;-81
2021/10/21 00:40:42;;;;;;;10.23;8.88;;;;;;;11.36;88.29;97878.36;2187387;81;21526;-81
2021/10/21 00:43:43;;;;;;;12.00;9.55;;;;;;;11.22;89.31;97859.72;2187294;80;21040;-82
2021/10/21 00:46:44;;;;;;;11.45;9.78;;;;;;;11.22;89.31;97859.72;2187403;80;21095;-81
2021/10/21 00:49:45;;;;;;;12.78;9.83;;;;;;;11.14;89.79;97861.24;2187248;80;20972;-81
2021/10/21 00:52:46;;;;;;;11.05;8.83;;;;;;;11.05;90.38;97856.21;2187389;80;21006;-80
2021/10/21 00:55:47;;;;;;;19.48;12.82;;;;;;;11.00;90.49;97852.61;2187350;80;20984;-81
2021/10/21 00:58:50;;;;;;;14.00;10.68;;;;;;;10.95;91.00;97845.34;2187231;80;21067;-81
2021/10/21 01:01:50;;;;;;;13.50;10.05;;;;;;;10.91;91.31;97843.34;2187528;81;21080;-81
2021/10/21 01:04:51;;;;;;;13.83;11.15;;;;;;;10.86;91.63;97833.46;2187487;81;20940;-80
2021/10/21 01:07:52;;;;;;;11.95;10.68;;;;;;;10.81;91.82;97825.42;2187392;80;21086;-81
2021/10/21 01:10:53;;;;;;;14.73;10.60;;;;;;;10.75;92.00;97824.91;2187373;81;20960;-81
2021/10/21 01:13:54;;;;;;;12.80;9.75;;;;;;;10.62;92.54;97819.19;2187701;80;21393;-81
2021/10/21 01:16:55;;;;;;;12.88;10.05;;;;;;;10.62;92.54;97819.19;2189963;81;21095;-82
2021/10/21 01:19:56;;;;;;;10.88;9.28;;;;;;;10.57;93.24;97812.42;2190068;81;21003;-81
2021/10/21 01:22:57;;;;;;;14.63;10.50;;;;;;;10.53;93.77;97803.38;2190036;81;20993;-81
2021/10/21 01:25:58;;;;;;;15.72;10.95;;;;;;;10.51;94.22;97795.73;2190030;81;21603;-81
2021/10/21 01:28:58;;;;;;;13.78;10.48;;;;;;;10.51;94.22;97795.73;2189874;81;21023;-81
2021/10/21 01:32:00;;;;;;;12.65;10.03;;;;;;;10.48;94.43;97794.80;2190140;81;20963;-81
2021/10/21 01:35:01;;;;;;;12.75;10.68;;;;;;;10.43;94.68;97793.30;2190016;81;21573;-81
2021/10/21 01:38:02;;;;;;;13.70;10.48;;;;;;;10.37;95.21;97782.32;2189913;81;21007;-81
2021/10/21 01:41:02;;;;;;;12.85;9.53;;;;;;;10.30;95.45;97778.89;2189856;81;20996;-81
2021/10/21 01:44:03;;;;;;;12.65;9.18;;;;;;;10.23;95.91;97774.95;2189746;81;21466;-81
2021/10/21 01:47:04;;;;;;;13.68;10.30;;;;;;;10.18;96.50;97771.31;2190393;81;21071;-81
2021/10/21 01:50:05;;;;;;;11.63;10.50;;;;;;;10.14;96.98;97764.34;2189914;81;20969;-81
2021/10/21 01:53:05;;;;;;;14.75;10.32;;;;;;;10.12;96.98;97763.74;2189695;81;21006;-81
2021/10/21 01:56:06;;;;;;;12.00;9.90;;;;;;;10.09;97.13;97752.88;2189861;81;21063;-81
2021/10/21 01:59:07;;;;;;;12.03;9.48;;;;;;;10.06;97.69;97744.11;2190123;81;20937;-81
2021/10/21 02:02:08;;;;;;;12.88;10.53;;;;;;;10.02;97.69;97736.38;2189892;81;21038;-81
2021/10/21 02:05:09;;;;;;;13.10;10.60;;;;;;;9.97;97.97;97735.17;2189984;81;20995;-81
2021/10/21 02:08:10;;;;;;;13.83;10.35;;;;;;;9.96;98.54;97727.50;2189957;81;20992;-81
2021/10/21 02:11:10;;;;;;;13.78;10.13;;;;;;;9.96;98.59;97730.12;2190201;81;20979;-81
2021/10/21 02:14:11;;;;;;;11.45;9.85;;;;;;;9.95;98.87;97720.16;2189928;81;20996;-81
2021/10/21 02:17:12;;;;;;;11.53;9.50;;;;;;;10.01;99.22;97715.95;2190301;81;21506;-81
2021/10/21 02:20:13;;;;;;;14.73;10.53;;;;;;;10.05;99.40;97711.92;2190332;81;21027;-82
2021/10/21 02:23:14;;;;;;;13.20;10.15;;;;;;;10.11;99.37;97703.79;2190278;81;21002;-81
2021/10/21 02:26:14;;;;;;;13.50;9.58;;;;;;;10.17;99.63;97705.61;2190327;81;21015;-82
2021/10/21 02:29:15;;;;;;;14.47;9.90;;;;;;;10.19;99.59;97693.13;2190280;80;21047;-82
2021/10/21 02:32:16;;;;;;;13.72;10.20;;;;;;;10.28;99.40;97700.30;2190154;81;21079;-81
2021/10/21 02:35:17;;;;;;;15.08;10.40;;;;;;;10.33;99.24;97689.52;2190045;81;21044;-81
2021/10/21 02:38:18;;;;;;;12.95;9.40;;;;;;;10.33;99.24;97689.52;2190314;81;21055;-81
2021/10/21 02:41:19;;;;;;;10.05;8.83;;;;;;;10.33;99.53;97688.71;2190022;81;21003;-81
2021/10/21 02:44:20;;;;;;;12.45;9.40;;;;;;;10.36;99.56;97693.56;2190075;81;20983;-81
2021/10/21 02:47:21;;;;;;;13.20;9.60;;;;;;;10.39;99.73;97683.48;2190249;80;21003;-81
2021/10/21 02:50:21;;;;;;;13.28;9.50;;;;;;;10.43;99.75;97687.83;2190111;81;21000;-81
2021/10/21 02:53:22;;;;;;;12.33;10.00;;;;;;;10.47;99.89;97684.58;2189950;81;21122;-81
2021/10/21 02:56:23;;;;;;;10.35;9.23;;;;;;;10.51;99.82;97679.26;2190079;81;21004;-80
2021/10/21 02:59:24;;;;;;;11.50;9.83;;;;;;;10.52;99.67;97670.91;2190390;81;20995;-81
2021/10/21 03:02:25;;;;;;;13.22;9.33;;;;;;;10.53;100.00;97667.27;2190221;80;21023;-82
2021/10/21 03:05:25;;;;;;;12.73;9.25;;;;;;;10.54;100.00;97656.59;2190150;81;20976;-82
2021/10/21 03:08:26;;;;;;;14.45;9.90;;;;;;;10.58;100.00;97656.98;2190378;81;20995;-81
2021/10/21 03:11:27;;;;;;;13.13;9.88;;;;;;;10.60;99.97;97651.02;2190148;80;20956;-81
2021/10/21 03:14:28;;;;;;;11.93;9.65;;;;;;;10.63;100.00;97639.36;2189388;81;21083;-81
2021/10/21 03:17:29;;;;;;;10.60;8.95;;;;;;;10.71;100.00;97635.22;2187386;80;21028;-85
2021/10/21 03:20:32;;;;;;;11.68;8.85;;;;;;;10.77;100.00;97635.67;2187429;80;21049;-82
2021/10/21 03:23:32;;;;;;;18.95;10.80;;;;;;;10.82;99.93;97629.33;2187331;81;21047;-83
2021/10/21 03:26:33;;;;;;;11.63;9.30;;;;;;;10.84;100.00;97627.30;2187363;81;21011;-83
2021/10/21 03:29:35;;;;;;;12.88;8.65;;;;;;;10.85;100.00;97621.05;2187431;81;21043;-83
2021/10/21 03:32:36;;;;;;;11.60;8.78;;;;;;;10.87;99.99;97615.59;2187349;81;21075;-82
2021/10/21 03:35:37;;;;;;;12.25;10.63;;;;;;;10.86;99.79;97613.48;2187408;81;21066;-82
2021/10/21 03:38:38;;;;;;;10.90;8.58;;;;;;;10.86;99.79;97613.48;2187388;81;21583;-82
2021/10/21 03:41:39;;;;;;;9.08;8.03;;;;;;;10.92;99.78;97619.22;2187534;81;21519;-82
2021/10/21 03:44:40;;;;;;;11.43;9.73;;;;;;;10.96;99.83;97612.53;2187336;80;21011;-81
2021/10/21 03:47:41;;;;;;;11.22;9.18;;;;;;;10.99;99.76;97605.59;2186960;81;21480;-81
2021/10/21 03:50:42;;;;;;;12.40;10.18;;;;;;;11.04;99.82;97600.52;2187443;81;21034;-81
2021/10/21 03:53:43;;;;;;;11.78;9.65;;;;;;;11.06;100.00;97591.96;2187415;81;21519;-82
2021/10/21 03:56:44;;;;;;;11.12;8.83;;;;;;;11.09;100.00;97588.91;2187435;80;21007;-83
2021/10/21 03:59:45;;;;;;;12.85;9.25;;;;;;;11.11;100.00;97581.64;2187522;81;20972;-82
2021/10/21 04:02:46;;;;;;;9.30;8.40;;;;;;;11.13;100.00;97577.50;2187436;81;20975;-83
2021/10/21 04:05:47;;;;;;;9.98;8.95;;;;;;;11.17;100.00;97566.11;2187445;80;20960;-83
2021/10/21 04:08:48;;;;;;;9.55;8.65;;;;;;;11.19;100.00;97560.14;2186987;80;21623;-82
2021/10/21 04:11:48;;;;;;;14.75;9.75;;;;;;;11.24;100.00;97557.67;2187336;80;21034;-82
2021/10/21 04:14:49;;;;;;;13.32;9.90;;;;;;;11.28;100.00;97555.75;2187711;80;21008;-81
2021/10/21 04:17:50;;;;;;;12.85;8.75;;;;;;;11.35;100.00;97550.47;2189959;81;21015;-83
2021/10/21 04:20:51;;;;;;;11.25;9.63;;;;;;;11.39;100.00;97550.33;2189889;80;21504;-82
2021/10/21 04:23:52;;;;;;;11.30;9.43;;;;;;;11.42;100.00;97543.34;2189920;81;21011;-83
2021/10/21 04:26:53;;;;;;;11.22;8.75;;;;;;;11.42;100.00;97530.23;2190046;81;21083;-83
2021/10/21 04:29:53;;;;;;;12.53;9.58;;;;;;;11.42;100.00;97532.86;2189983;81;20956;-83
2021/10/21 04:32:54;;;;;;;13.00;9.75;;;;;;;11.43;100.00;97538.90;2190177;81;21459;-82
2021/10/21 04:35:55;;;;;;;11.03;9.85;;;;;;;11.44;99.97;97531.36;2189886;81;21039;-84
2021/10/21 04:38:56;;;;;;;14.23;9.70;;;;;;;11.48;100.00;97530.70;2190075;81;21046;-83
2021/10/21 04:41:57;;;;;;;13.45;9.83;;;;;;;11.53;100.00;97525.64;2190064;80;21000;-84
2021/10/21 04:44:58;;;;;;;11.70;9.58;;;;;;;11.60;99.86;97522.94;2190012;81;21010;-84
2021/10/21 04:47:59;;;;;;;13.35;10.13;;;;;;;11.63;99.71;97510.73;2190035;81;21015;-84
2021/10/21 04:51:00;;;;;;;10.95;9.33;;;;;;;11.66;99.74;97498.49;2189861;81;21035;-84
2021/10/21 04:54:00;;;;;;;10.20;9.13;;;;;;;11.68;99.59;97495.14;2190011;81;21535;-85
2021/10/21 04:57:01;;;;;;;12.13;9.50;;;;;;;11.68;99.53;97493.32;2190178;81;20968;-84
2021/10/21 05:00:02;;;;;;;11.75;10.23;;;;;;;11.69;99.60;97487.05;2190042;81;21011;-83
2021/10/21 05:03:03;;;;;;;10.45;9.35;;;;;;;11.72;100.00;97470.11;2189900;80;21444;-84
2021/10/21 05:06:04;;;;;;;12.78;10.68;;;;;;;11.79;99.30;97453.77;2190166;81;21043;-84
2021/10/21 05:09:05;;;;;;;12.25;9.68;;;;;;;11.88;99.47;97442.01;2189852;81;21432;-84
2021/10/21 05:12:06;;;;;;;13.80;9.68;;;;;;;11.96;99.02;97444.86;2189835;81;21550;-84
2021/10/21 05:15:07;;;;;;;12.75;10.60;;;;;;;12.04;99.31;97445.08;2184005;81;21074;-83
2021/10/21 05:18:08;;;;;;;13.50;10.13;;;;;;;12.11;98.75;97455.80;2169752;82;20944;-83
2021/10/21 05:21:08;;;;;;;12.13;10.08;;;;;;;12.12;98.60;97447.41;2168636;82;21018;-84
2021/10/21 05:24:09;;;;;;;12.88;10.35;;;;;;;12.11;98.56;97451.86;2168749;82;21035;-84
2021/10/21 05:27:12;;;;;;;14.93;10.40;;;;;;;12.13;98.44;97454.26;2168667;82;21006;-84
2021/10/21 05:30:13;;;;;;;13.50;9.20;;;;;;;12.14;98.45;97455.34;2168686;81;21075;-83
2021/10/21 05:33:14;;;;;;;13.95;10.55;;;;;;;12.16;98.41;97456.44;2168782;82;21555;-83
2021/10/21 05:36:14;;;;;;;15.43;11.10;;;;;;;12.20;98.40;97457.61;2168562;81;21022;-83
2021/10/21 05:39:15;;;;;;;12.50;9.78;;;;;;;12.22;98.30;97461.61;2168668;81;21034;-83
2021/10/21 05:42:16;;;;;;;12.18;10.10;;;;;;;12.19;97.89;97442.38;2168984;82;21562;-84
2021/10/21 05:45:17;;;;;;;11.05;9.60;;;;;;;12.14;98.01;97440.91;2168974;82;21043;-83
2021/10/21 05:48:18;;;;;;;12.05;10.00;;;;;;;12.06;98.12;97435.16;2169203;82;20967;-83
2021/10/21 05:51:19;;;;;;;24.50;16.10;;;;;;;11.98;98.19;97434.14;2168844;82;20951;-83
2021/10/21 05:54:20;;;;;;;18.60;15.13;;;;;;;11.88;98.32;97418.92;2168921;81;21134;-83
2021/10/21 05:57:20;;;;;;;16.62;14.80;;;;;;;11.78;98.54;97414.16;2168983;82;21601;-83
2021/10/21 06:00:21;;;;;;;13.75;12.13;;;;;;;11.69;98.76;97399.22;2168862;82;20944;-83
2021/10/21 06:03:25;;;;;;;13.53;10.53;;;;;;;11.61;98.90;97386.42;2168867;82;21007;-84
2021/10/21 06:06:25;;;;;;;13.25;10.70;;;;;;;11.56;99.15;97381.02;2168687;82;21007;-84
2021/10/21 06:09:26;;;;;;;14.15;11.48;;;;;;;11.51;99.24;97360.40;2168963;82;21016;-83
2021/10/21 06:12:27;;;;;;;12.95;11.60;;;;;;;11.47;99.29;97348.76;2168978;82;21008;-82
2021/10/21 06:15:28;;;;;;;11.30;9.90;;;;;;;11.44;99.63;97330.86;2168846;81;21043;-83
2021/10/21 06:18:29;;;;;;;11.08;9.88;;;;;;;11.40;99.86;97309.00;2169080;82;20987;-83
2021/10/21 06:21:30;;;;;;;14.80;10.72;;;;;;;11.44;100.00;97303.34;2169058;82;21443;-83
2021/10/21 06:24:31;;;;;;;12.53;10.40;;;;;;;11.54;99.94;97302.31;2168952;82;21440;-84
2021/10/21 06:27:32;;;;;;;13.10;10.45;;;;;;;11.67;100.00;97320.50;2168516;82;21580;-83
2021/10/21 06:30:33;;;;;;;13.93;11.20;;;;;;;11.85;99.35;97319.70;2168935;82;20940;-83
2021/10/21 06:33:34;;;;;;;14.80;10.95;;;;;;;12.01;99.05;97318.30;2168537;82;21371;-84
2021/10/21 06:36:34;;;;;;;14.95;11.15;;;;;;;12.17;98.57;97307.98;2168739;82;21117;-83
2021/10/21 06:39:35;;;;;;;12.37;11.08;;;;;;;12.29;98.28;97304.59;2168610;82;21018;-83
2021/10/21 06:42:36;;;;;;;10.98;9.83;;;;;;;12.41;97.86;97317.22;2168842;81;21584;-82
2021/10/21 06:45:37;;;;;;;10.85;9.35;;;;;;;12.52;97.84;97325.11;2168883;82;20944;-83
2021/10/21 06:48:38;;;;;;;11.35;9.13;;;;;;;12.64;97.50;97320.42;2168895;81;21033;-83
2021/10/21 06:51:43;;;;;;;10.28;8.95;;;;;;;12.73;96.99;97321.17;2168335;82;20988;-83
2021/10/21 06:54:44;;;;;;;9.65;8.75;;;;;;;12.96;97.39;97333.52;2168413;82;21109;-83
2021/10/21 06:57:46;;;;;;;11.22;10.00;;;;;;;13.20;96.51;97336.19;2168940;82;21010;-84
2021/10/21 07:00:48;;;;;;;14.38;10.58;;;;;;;13.36;96.06;97338.12;2168789;82;21554;-84
2021/10/21 07:03:50;;;;;;;11.97;10.40;;;;;;;13.54;95.30;97346.39;2168745;81;21019;-84
2021/10/21 07:06:51;;;;;;;10.58;9.58;;;;;;;13.78;94.97;97356.33;2168899;82;21014;-84
2021/10/21 07:09:53;;;;;;;14.20;9.93;;;;;;;14.04;94.43;97372.11;2168853;82;20991;-87
2021/10/21 07:12:54;;;;;;;11.45;9.85;;;;;;;14.33;94.66;97390.03;2169029;82;21535;-83
2021/10/21 07:15:55;;;;;;;14.03;11.12;;;;;;;14.50;94.10;97396.17;2176084;81;21028;-84
2021/10/21 07:18:56;;;;;;;15.43;11.35;;;;;;;14.64;93.68;97396.69;2190017;81;20964;-84
2021/10/21 07:21:56;;;;;;;12.85;10.80;;;;;;;14.76;93.02;97402.69;2190168;81;21003;-86
2021/10/21 07:24:57;;;;;;;12.85;9.78;;;;;;;14.84;92.21;97389.64;2189847;81;20932;-86
2021/10/21 07:28:02;;;;;;;12.53;10.60;;;;;;;14.90;91.90;97391.31;2190039;81;21506;-87
2021/10/21 07:31:01;;;;;;;11.45;9.55;;;;;;;14.95;91.97;97385.61;2189447;81;21019;-87
2021/10/21 07:34:02;;;;;;;10.38;9.30;;;;;;;15.02;91.33;97374.39;2189910;81;21590;-85
2021/10/21 07:37:04;;;;;;;10.60;9.50;;;;;;;15.10;91.08;97373.20;2189860;81;20945;-86
2021/10/21 07:40:05;;;;;;;11.33;8.90;;;;;;;15.22;91.08;97363.87;2189858;81;21006;-88
2021/10/21 07:43:06;;;;;;;11.78;8.93;;;;;;;15.31;90.61;97338.70;2190093;81;20992;-85
2021/10/21 07:46:07;;;;;;;11.35;10.13;;;;;;;15.38;90.18;97326.14;2189723;81;21023;-89
2021/10/21 07:49:08;;;;;;;11.65;10.45;;;;;;;15.46;89.65;97326.25;2190134;81;21023;-85
2021/10/21 07:52:10;;;;;;;12.33;9.78;;;;;;;15.52;89.60;97324.73;2189387;81;21122;-86
2021/10/21 07:55:11;;;;;;;12.05;10.80;;;;;;;15.57;89.54;97336.67;2189940;81;20999;-86
2021/10/21 07:58:13;;;;;;;10.15;9.20;;;;;;;15.56;89.22;97343.00;2190373;81;21022;-86
2021/10/21 08:01:14;;;;;;;16.97;11.55;;;;;;;15.59;89.14;97351.73;2189878;81;21048;-86
2021/10/21 08:04:15;;;;;;;13.75;10.82;;;;;;;15.63;88.76;97368.72;2189985;81;21573;-86
2021/10/21 08:07:16;;;;;;;11.78;9.75;;;;;;;15.68;88.63;97368.49;2190109;81;21052;-86
2021/10/21 08:10:17;;;;;;;9.50;8.60;;;;;;;15.77;88.88;97376.27;2189781;81;21067;-84
2021/10/21 08:13:18;;;;;;;9.85;8.63;;;;;;;15.89;88.17;97369.02;2189732;81;21583;-86
2021/10/21 08:16:19;;;;;;;12.28;8.80;;;;;;;16.01;87.70;97363.10;2189420;80;21023;-85
2021/10/21 08:19:21;;;;;;;19.70;13.93;;;;;;;16.19;86.19;97359.34;2187429;81;21051;-84
2021/10/21 08:22:22;;;;;;;21.57;14.33;;;;;;;16.34;85.94;97350.77;2187279;81;20972;-84
2021/10/21 08:25:25;;;;;;;21.68;14.98;;;;;;;16.52;85.61;97357.54;2187739;81;20987;-84
2021/10/21 08:28:26;;;;;;;28.57;18.45;;;;;;;16.69;84.30;97344.52;2187591;81;20987;-84
2021/10/21 08:31:27;;;;;;;28.77;20.30;;;;;;;16.95;84.50;97350.81;2187308;81;21023;-83
2021/10/21 08:34:28;;;;;;;19.52;15.20;;;;;;;17.15;84.13;97355.44;2187329;81;21134;-84
2021/10/21 08:37:29;;;;;;;16.20;12.15;;;;;;;17.32;83.19;97353.44;2187189;81;21011;-84
2021/10/21 08:40:31;;;;;;;12.05;10.78;;;;;;;17.46;82.16;97358.27;2187201;81;21072;-83
2021/10/21 08:43:32;;;;;;;12.33;10.10;;;;;;;17.63;81.24;97357.56;2186971;81;20937;-83
2021/10/21 08:46:33;;;;;;;10.23;9.33;;;;;;;17.83;80.31;97354.24;2187454;81;21006;-82
2021/10/21 08:49:36;;;;;;;11.30;10.08;;;;;;;17.97;79.91;97360.67;2186985;81;21763;-83
2021/10/21 08:52:37;;;;;;;11.00;9.78;;;;;;;18.11;79.47;97362.31;2187193;81;21071;-83
2021/10/21 08:55:38;;;;;;;11.03;9.95;;;;;;;18.15;78.87;97357.55;2187314;80;21039;-83
2021/10/21 08:58:39;;;;;;;11.33;10.13;;;;;;;18.17;76.37;97366.55;2187210;81;20965;-84
2021/10/21 09:01:43;;;;;;;13.83;11.00;;;;;;;18.10;77.29;97364.14;2187527;81;20996;-82
2021/10/21 09:07:56;;;;;;;11.95;10.70;;;;;;;17.98;76.75;97374.70;2088858;85;21610;-83
2021/10/21 09:10:58;;;;;;;11.22;10.03;;;;;;;17.96;77.16;97376.29;2088797;85;21022;-83
2021/10/21 09:13:59;;;;;;;14.83;11.28;;;;;;;17.95;76.55;97380.00;2088815;85;21622;-83
2021/10/21 09:17:01;;;;;;;11.78;10.45;;;;;;;17.87;75.90;97392.40;2089837;85;21089;-84
2021/10/21 09:20:02;;;;;;;12.20;10.15;;;;;;;17.76;76.75;97388.12;2091176;85;21007;-83
2021/10/21 09:23:06;;;;;;;14.38;11.25;;;;;;;17.58;76.32;97395.94;2091315;85;21577;-83
2021/10/21 09:26:05;;;;;;;12.95;10.55;;;;;;;17.44;76.52;97400.06;2091244;85;21041;-83
2021/10/21 09:29:06;;;;;;;11.63;10.35;;;;;;;17.29;76.60;97408.72;2091388;85;21101;-83
2021/10/21 09:32:07;;;;;;;14.28;11.38;;;;;;;17.18;77.06;97410.98;2091294;85;20998;-83
2021/10/21 09:35:08;;;;;;;14.68;11.22;;;;;;;17.05;77.39;97406.41;2091153;85;21140;-84
2021/10/21 09:38:09;;;;;;;14.13;12.68;;;;;;;16.93;77.76;97366.66;2091134;85;21137;-83
2021/10/21 09:41:10;;;;;;;24.30;16.62;;;;;;;16.83;78.25;97341.47;2090957;85;21649;-83
2021/10/21 09:44:11;;;;;;;31.68;20.55;;;;;;;16.70;79.31;97335.54;2134148;81;21566;-84
2021/10/21 09:47:12;;;;;;;24.25;17.32;;;;;;;16.54;80.43;97327.17;2189673;81;22089;-84
2021/10/21 09:50:15;;;;;;;29.85;21.57;;;;;;;16.39;81.75;97292.72;2189946;81;21031;-84
2021/10/21 09:53:21;;;;;;;39.88;24.98;;;;;;;16.23;82.51;97293.09;2191610;81;21063;-83
2021/10/21 09:56:18;;;;;;;45.17;28.23;;;;;;;16.10;83.30;97275.02;2188536;81;21099;-82
2021/10/21 09:59:20;;;;;;;43.25;25.95;;;;;;;16.01;84.46;97270.71;2190068;81;21015;-82
2021/10/21 10:02:21;;;;;;;36.33;23.77;;;;;;;15.92;85.38;97282.75;2189905;81;21011;-84
2021/10/21 10:05:22;;;;;;;37.73;25.30;;;;;;;15.85;85.94;97300.09;2189994;81;21003;-84
2021/10/21 10:08:23;;;;;;;27.42;19.07;;;;;;;15.78;86.14;97309.24;2189869;81;21023;-83
2021/10/21 10:11:25;;;;;;;19.30;15.35;;;;;;;15.76;86.44;97311.34;2189899;81;21050;-84
2021/10/21 10:14:26;;;;;;;18.87;14.50;;;;;;;15.69;86.46;97312.04;2190044;81;21007;-84
2021/10/21 10:17:29;;;;;;;21.23;15.95;;;;;;;15.65;86.33;97313.06;2186151;81;21051;-84
2021/10/21 10:20:30;;;;;;;25.62;18.30;;;;;;;15.62;86.42;97305.62;2184071;81;21079;-84
2021/10/21 10:23:31;;;;;;;39.65;26.52;;;;;;;15.60;86.60;97306.36;2184037;81;21087;-84
2021/10/21 10:26:32;;;;;;;23.98;17.75;;;;;;;15.56;86.66;97321.09;2183937;81;21055;-84
2021/10/21 10:29:34;;;;;;;18.85;14.28;;;;;;;15.48;86.27;97322.31;2183739;81;21028;-87
2021/10/21 10:32:35;;;;;;;17.40;14.30;;;;;;;15.38;86.50;97352.52;2184157;81;21015;-87
2021/10/21 10:35:44;;;;;;;18.82;14.85;;;;;;;15.31;86.29;97358.47;2184084;81;21023;-87
2021/10/21 10:38:45;;;;;;;19.15;15.63;;;;;;;15.27;86.91;97345.48;2183993;81;21043;-87
2021/10/21 10:41:48;;;;;;;24.77;16.75;;;;;;;15.22;86.96;97354.13;2184021;81;21027;-87
2021/10/21 10:44:49;;;;;;;27.02;18.12;;;;;;;15.19;87.09;97336.16;2183997;81;21063;-87
2021/10/21 10:47:50;;;;;;;23.52;17.60;;;;;;;15.18;87.80;97330.62;2183992;81;20968;-87
2021/10/21 10:50:51;;;;;;;23.57;18.17;;;;;;;15.12;87.77;97321.03;2183930;81;21071;-88
2021/10/21 10:53:56;;;;;;;25.85;18.25;;;;;;;15.07;87.58;97292.74;2183904;81;21082;-87
2021/10/21 10:56:55;;;;;;;21.80;14.23;;;;;;;15.07;88.25;97234.75;2183436;81;21570;-87
2021/10/21 10:59:56;;;;;;;22.13;17.75;;;;;;;15.10;88.10;97244.55;2183934;81;21083;-87
2021/10/21 11:02:58;;;;;;;25.68;18.52;;;;;;;15.14;88.37;97254.88;2183863;81;20980;-87
2021/10/21 11:05:59;;;;;;;27.37;20.57;;;;;;;15.18;88.57;97269.16;2183787;81;21018;-87
2021/10/21 11:09:07;;;;;;;32.08;21.90;;;;;;;15.24;88.60;97244.46;2184092;81;21018;-89
2021/10/21 11:12:11;;;;;;;26.30;18.60;;;;;;;15.27;88.49;97240.83;2184062;81;21070;-87
2021/10/21 11:15:11;;;;;;;21.68;17.65;;;;;;;15.30;88.37;97232.42;2183122;81;21810;-87
2021/10/21 11:18:12;;;;;;;20.60;16.35;;;;;;;15.35;88.48;97236.42;2173200;81;21039;-87
2021/10/21 11:21:13;;;;;;;22.80;17.48;;;;;;;15.47;88.37;97227.61;2168718;82;21059;-87
2021/10/21 11:24:14;;;;;;;24.50;17.12;;;;;;;15.58;88.16;97235.91;2168749;82;21039;-86
2021/10/21 11:27:15;;;;;;;26.37;19.45;;;;;;;15.69;88.08;97221.02;2168702;82;20979;-85
2021/10/21 11:30:17;;;;;;;26.82;15.98;;;;;;;15.76;87.70;97220.30;2168871;82;21093;-85
2021/10/21 11:33:19;;;;;;;21.42;15.60;;;;;;;15.86;87.97;97216.44;2168667;82;21594;-86
2021/10/21 11:36:20;;;;;;;16.42;13.25;;;;;;;15.93;87.70;97221.00;2168729;82;21009;-85
2021/10/21 11:39:21;;;;;;;18.10;13.68;;;;;;;15.97;87.61;97220.77;2169057;82;21006;-85
2021/10/21 11:42:22;;;;;;;18.23;13.30;;;;;;;15.98;87.11;97213.64;2168693;82;21018;-89
2021/10/21 11:45:24;;;;;;;21.25;13.75;;;;;;;15.93;86.70;97202.53;2169057;81;20955;-84
2021/10/21 11:48:25;;;;;;;20.15;15.20;;;;;;;15.88;86.82;97204.58;2168622;82;21015;-84
2021/10/21 11:51:26;;;;;;;20.12;13.38;;;;;;;15.85;86.90;97209.05;2168930;82;21303;-85
2021/10/21 11:54:27;;;;;;;19.92;14.47;;;;;;;15.84;85.89;97198.22;2168733;82;21023;-85
2021/10/21 11:57:29;;;;;;;18.77;13.20;;;;;;;15.85;86.38;97208.25;2168697;82;21034;-86
2021/10/21 12:00:31;;;;;;;13.98;11.35;;;;;;;15.87;86.37;97196.91;2168655;82;20948;-86
2021/10/21 12:03:32;;;;;;;18.65;12.58;;;;;;;15.89;86.26;97222.53;2168755;81;21063;-87
2021/10/21 12:06:33;;;;;;;15.68;12.20;;;;;;;15.91;86.04;97225.22;2168759;81;20956;-86
2021/10/21 12:09:34;;;;;;;17.25;12.37;;;;;;;15.93;86.08;97221.00;2168807;82;21065;-87
2021/10/21 12:12:35;;;;;;;14.23;11.35;;;;;;;15.95;85.77;97216.27;2168640;82;21099;-85
2021/10/21 12:15:36;;;;;;;9.65;8.73;;;;;;;15.94;85.29;97213.35;2168760;82;21031;-85
2021/10/21 12:18:37;;;;;;;16.55;11.63;;;;;;;15.93;85.01;97223.12;2168353;81;21003;-86
2021/10/21 12:21:40;;;;;;;12.85;9.93;;;;;;;15.94;85.25;97229.19;2169037;82;21030;-87
2021/10/21 12:24:43;;;;;;;12.25;9.53;;;;;;;15.92;84.74;97224.69;2168778;81;21106;-87
2021/10/21 12:27:44;;;;;;;15.00;9.90;;;;;;;15.94;84.82;97235.78;2168798;82;21086;-86
2021/10/21 12:30:45;;;;;;;12.82;10.30;;;;;;;15.91;84.83;97225.22;2168682;82;20991;-88
2021/10/21 12:33:46;;;;;;;15.75;9.23;;;;;;;15.91;84.83;97225.22;2168751;82;21075;-87
2021/10/21 12:36:47;;;;;;;11.00;7.40;;;;;;;15.89;83.78;97219.36;2168746;82;21523;-87
2021/10/21 12:39:48;;;;;;;12.70;9.38;;;;;;;15.87;83.33;97215.39;2169454;81;21479;-88
2021/10/21 12:42:49;;;;;;;12.65;9.48;;;;;;;15.85;83.29;97230.16;2168777;82;20975;-88
2021/10/21 12:45:50;;;;;;;12.65;9.23;;;;;;;15.83;83.61;97229.62;2168547;82;21078;-87
2021/10/21 12:48:52;;;;;;;11.30;7.90;;;;;;;15.83;83.49;97235.42;2168723;82;21491;-87
2021/10/21 12:51:53;;;;;;;9.28;7.03;;;;;;;15.82;83.25;97233.83;2168892;82;21490;-88
2021/10/21 12:54:54;;;;;;;10.60;7.60;;;;;;;15.80;82.97;97233.26;2168621;82;21074;-88
2021/10/21 12:57:55;;;;;;;11.70;7.42;;;;;;;15.78;82.37;97220.31;2168764;82;21494;-88
2021/10/21 13:00:56;;;;;;;12.33;9.93;;;;;;;15.79;82.49;97218.47;2168763;82;21074;-86
2021/10/21 13:03:56;;;;;;;9.75;6.90;;;;;;;15.78;82.54;97232.19;2168785;82;21522;-87
2021/10/21 13:06:57;;;;;;;7.22;6.45;;;;;;;15.77;82.14;97241.16;2168636;82;21506;-87
2021/10/21 13:09:58;;;;;;;10.38;6.53;;;;;;;15.79;82.20;97232.98;2168477;82;21066;-87
2021/10/21 13:12:59;;;;;;;10.60;7.80;;;;;;;15.81;82.19;97228.25;2168366;82;21082;-87
2021/10/21 13:16:01;;;;;;;12.37;8.80;;;;;;;15.84;82.04;97227.77;2168493;82;21082;-87
2021/10/21 13:19:06;;;;;;;12.45;8.88;;;;;;;15.84;81.49;97234.37;2185149;80;21150;-87
2021/10/21 13:22:04;;;;;;;12.73;7.85;;;;;;;15.87;81.86;97237.30;2189242;81;21091;-87
2021/10/21 13:25:08;;;;;;;8.15;7.00;;;;;;;15.89;81.88;97237.05;2190006;81;20999;-87
2021/10/21 13:28:08;;;;;;;8.15;6.30;;;;;;;15.89;81.07;97227.81;2190398;81;21344;-87
2021/10/21 13:31:09;;;;;;;13.20;7.47;;;;;;;15.92;80.85;97229.97;2189914;81;20980;-87
2021/10/21 13:34:10;;;;;;;9.20;6.70;;;;;;;15.95;79.89;97229.46;2189826;81;21027;-88
2021/10/21 13:37:11;;;;;;;7.83;6.00;;;;;;;16.00;80.13;97244.04;2189840;81;21047;-87
2021/10/21 13:40:12;;;;;;;9.70;5.97;;;;;;;16.02;79.99;97238.50;2189969;81;20986;-87
2021/10/21 13:43:13;;;;;;;9.48;6.35;;;;;;;16.07;79.64;97239.86;2189839;81;20979;-87
2021/10/21 13:46:13;;;;;;;6.87;5.78;;;;;;;16.10;79.27;97224.86;2190074;81;21474;-87
2021/10/21 13:49:14;;;;;;;7.20;5.10;;;;;;;16.14;78.67;97212.73;2189978;81;21098;-87
2021/10/21 13:52:15;;;;;;;9.18;5.35;;;;;;;16.12;78.52;97217.48;2189970;81;21058;-87
2021/10/21 13:55:16;;;;;;;7.75;5.70;;;;;;;16.12;78.52;97217.48;2189911;81;21564;-87
2021/10/21 13:58:17;;;;;;;6.35;5.50;;;;;;;16.17;77.96;97231.50;2189892;81;20991;-87
2021/10/21 14:01:23;;;;;;;6.60;5.37;;;;;;;16.21;77.32;97241.05;2189946;81;21012;-86